sensor_id;sensor_type;location;lat;lon;timestamp;temperature;humidity
18721;DHT22;9489;50.948;3.114;2024-01-15T00:01:29;3.50;99.90
18721;DHT22;9489;50.948;3.114;2024-01-15T00:03:54;3.50;99.90
18721;DHT22;9489;50.948;3.114;2024-01-15T00:06:20;3.50;99.90
18721;DHT22;9489;50.948;3.114;2024-01-15T00:08:46;3.50;99.90
18721;DHT22;9489;50.948;3.114;2024-01-15T00:11:12;3.50;99.90
18721;DHT22;9489;50.948;3.114;2024-01-15T00:13:38;3.40;99.90
18721;DHT22;9489;50.948;3.114;2024-01-15T00:16:04;3.50;99.90
18721;DHT22;9489;50.948;3.114;2024-01-15T00:18:30;3.50;99.90
18721;DHT22;9489;50.948;3.114;2024-01-15T00:20:56;3.50;99.90
18721;DHT22;9489;50.948;3.114;2024-01-15T00:23:22;3.50;99.90
18721;DHT22;9489;50.948;3.114;2024-01-15T00:25:48;3.60;99.90
18721;DHT22;9489;50.948;3.114;2024-01-15T00:28:14;3.60;99.90
18721;DHT22;9489;50.948;3.114;2024-01-15T00:30:39;3.60;99.90
18721;DHT22;9489;50.948;3.114;2024-01-15T00:33:05;3.60;99.90
18721;DHT22;9489;50.948;3.114;2024-01-15T00:35:31;3.60;99.90
18721;DHT22;9489;50.948;3.114;2024-01-15T00:37:57;3.60;99.90
18721;DHT22;9489;50.948;3.114;2024-01-15T00:40:22;3.70;99.90
18721;DHT22;9489;50.948;3.114;2024-01-15T00:42:48;3.70;99.90
18721;DHT22;9489;50.948;3.114;2024-01-15T00:45:14;3.70;99.90
18721;DHT22;9489;50.948;3.114;2024-01-15T00:47:40;3.70;99.90
18721;DHT22;9489;50.948;3.114;2024-01-15T00:50:06;3.70;99.90
18721;DHT22;9489;50.948;3.114;2024-01-15T00:52:31;3.80;99.90
18721;DHT22;9489;50.948;3.114;2024-01-15T00:54:57;3.80;99.90
18721;DHT22;9489;50.948;3.114;2024-01-15T00:57:23;3.80;99.90
18721;DHT22;9489;50.948;3.114;2024-01-15T00:59:48;3.80;99.90
18721;DHT22;9489;50.948;3.114;2024-01-15T01:02:14;3.80;99.90
18721;DHT22;9489;50.948;3.114;2024-01-15T01:04:40;3.80;99.90
18721;DHT22;9489;50.948;3.114;2024-01-15T01:07:06;3.90;99.90
18721;DHT22;9489;50.948;3.114;2024-01-15T01:09:31;3.90;99.90
18721;DHT22;9489;50.948;3.114;2024-01-15T01:11:57;3.90;99.90
18721;DHT22;9489;50.948;3.114;2024-01-15T01:14:23;3.90;99.90
18721;DHT22;9489;50.948;3.114;2024-01-15T01:16:48;3.90;99.90
18721;DHT22;9489;50.948;3.114;2024-01-15T01:19:14;3.90;99.90
18721;DHT22;9489;50.948;3.114;2024-01-15T01:21:40;3.90;99.90
18721;DHT22;9489;50.948;3.114;2024-01-15T01:24:06;3.90;99.90
18721;DHT22;9489;50.948;3.114;2024-01-15T01:26:31;3.90;99.90
18721;DHT22;9489;50.948;3.114;2024-01-15T01:28:57;3.80;99.90
18721;DHT22;9489;50.948;3.114;2024-01-15T01:31:23;3.80;99.90
18721;DHT22;9489;50.948;3.114;2024-01-15T01:33:49;3.80;99.90
18721;DHT22;9489;50.948;3.114;2024-01-15T01:36:15;3.80;99.90
18721;DHT22;9489;50.948;3.114;2024-01-15T01:38:41;3.80;99.90
18721;DHT22;9489;50.948;3.114;2024-01-15T01:41:07;3.70;99.90
18721;DHT22;9489;50.948;3.114;2024-01-15T01:43:33;3.70;99.90
18721;DHT22;9489;50.948;3.114;2024-01-15T01:46:00;3.70;99.90
18721;DHT22;9489;50.948;3.114;2024-01-15T01:48:26;3.70;99.90
18721;DHT22;9489;50.948;3.114;2024-01-15T01:50:58;3.80;99.90
18721;DHT22;9489;50.948;3.114;2024-01-15T01:53:26;3.70;99.90
18721;DHT22;9489;50.948;3.114;2024-01-15T01:55:53;3.70;99.90
18721;DHT22;9489;50.948;3.114;2024-01-15T01:58:19;3.70;99.90
18721;DHT22;9489;50.948;3.114;2024-01-15T02:00:46;3.70;99.90
18721;DHT22;9489;50.948;3.114;2024-01-15T02:03:12;3.70;99.90
18721;DHT22;9489;50.948;3.114;2024-01-15T02:05:39;3.70;99.90
18721;DHT22;9489;50.948;3.114;2024-01-15T02:08:05;3.80;99.90
18721;DHT22;9489;50.948;3.114;2024-01-15T02:10:31;3.80;99.90
18721;DHT22;9489;50.948;3.114;2024-01-15T02:12:56;3.80;99.90
18721;DHT22;9489;50.948;3.114;2024-01-15T02:15:22;3.80;99.90
18721;DHT22;9489;50.948;3.114;2024-01-15T02:20:23;3.80;99.90
18721;DHT22;9489;50.948;3.114;2024-01-15T02:22:48;3.80;99.90
18721;DHT22;9489;50.948;3.114;2024-01-15T02:25:14;3.80;99.90
18721;DHT22;9489;50.948;3.114;2024-01-15T02:27:40;3.80;99.90
18721;DHT22;9489;50.948;3.114;2024-01-15T02:30:07;3.80;99.90
18721;DHT22;9489;50.948;3.114;2024-01-15T02:32:33;3.90;99.90
18721;DHT22;9489;50.948;3.114;2024-01-15T02:34:59;3.80;99.90
18721;DHT22;9489;50.948;3.114;2024-01-15T02:37:25;3.90;99.90
18721;DHT22;9489;50.948;3.114;2024-01-15T02:39:50;3.90;1.00
18721;DHT22;9489;50.948;3.114;2024-01-15T02:42:16;3.90;1.00
18721;DHT22;9489;50.948;3.114;2024-01-15T02:44:41;3.90;1.00
18721;DHT22;9489;50.948;3.114;2024-01-15T02:47:07;3.90;1.00
18721;DHT22;9489;50.948;3.114;2024-01-15T02:49:33;3.90;1.00
18721;DHT22;9489;50.948;3.114;2024-01-15T02:51:58;3.90;1.00
18721;DHT22;9489;50.948;3.114;2024-01-15T02:54:24;3.90;1.00
18721;DHT22;9489;50.948;3.114;2024-01-15T02:56:49;3.90;1.00
18721;DHT22;9489;50.948;3.114;2024-01-15T02:59:15;3.90;1.00
18721;DHT22;9489;50.948;3.114;2024-01-15T03:01:41;3.90;1.00
18721;DHT22;9489;50.948;3.114;2024-01-15T03:04:07;3.90;1.00
18721;DHT22;9489;50.948;3.114;2024-01-15T03:06:33;3.80;1.00
18721;DHT22;9489;50.948;3.114;2024-01-15T03:08:59;3.80;1.00
18721;DHT22;9489;50.948;3.114;2024-01-15T03:11:25;3.80;1.00
18721;DHT22;9489;50.948;3.114;2024-01-15T03:13:50;3.80;1.00
18721;DHT22;9489;50.948;3.114;2024-01-15T03:16:16;3.80;1.00
18721;DHT22;9489;50.948;3.114;2024-01-15T03:18:41;3.80;1.00
18721;DHT22;9489;50.948;3.114;2024-01-15T03:21:07;3.80;1.00
18721;DHT22;9489;50.948;3.114;2024-01-15T03:23:33;3.80;1.00
18721;DHT22;9489;50.948;3.114;2024-01-15T03:25:58;3.80;1.00
18721;DHT22;9489;50.948;3.114;2024-01-15T03:28:24;3.70;1.00
18721;DHT22;9489;50.948;3.114;2024-01-15T03:30:50;3.80;1.30
18721;DHT22;9489;50.948;3.114;2024-01-15T03:33:15;3.80;4.60
18721;DHT22;9489;50.948;3.114;2024-01-15T03:35:41;3.80;11.50
18721;DHT22;9489;50.948;3.114;2024-01-15T03:38:06;3.80;7.40
18721;DHT22;9489;50.948;3.114;2024-01-15T03:40:32;3.70;5.10
18721;DHT22;9489;50.948;3.114;2024-01-15T03:42:58;3.70;23.70
18721;DHT22;9489;50.948;3.114;2024-01-15T03:45:23;3.70;23.80
18721;DHT22;9489;50.948;3.114;2024-01-15T03:47:49;3.80;34.10
18721;DHT22;9489;50.948;3.114;2024-01-15T03:50:14;3.70;38.70
18721;DHT22;9489;50.948;3.114;2024-01-15T03:52:40;3.80;37.30
18721;DHT22;9489;50.948;3.114;2024-01-15T03:55:06;3.80;35.60
18721;DHT22;9489;50.948;3.114;2024-01-15T03:57:32;3.80;30.60
18721;DHT22;9489;50.948;3.114;2024-01-15T03:59:57;3.80;27.60
18721;DHT22;9489;50.948;3.114;2024-01-15T04:02:23;3.80;22.40
18721;DHT22;9489;50.948;3.114;2024-01-15T04:04:49;3.80;25.10
18721;DHT22;9489;50.948;3.114;2024-01-15T04:07:14;3.90;19.60
18721;DHT22;9489;50.948;3.114;2024-01-15T04:09:40;3.80;18.20
18721;DHT22;9489;50.948;3.114;2024-01-15T04:12:06;3.80;37.30
18721;DHT22;9489;50.948;3.114;2024-01-15T04:14:31;3.80;38.50
18721;DHT22;9489;50.948;3.114;2024-01-15T04:16:57;3.80;36.10
18721;DHT22;9489;50.948;3.114;2024-01-15T04:19:23;3.80;30.70
18721;DHT22;9489;50.948;3.114;2024-01-15T04:21:48;3.80;32.60
18721;DHT22;9489;50.948;3.114;2024-01-15T04:24:14;3.70;29.10
18721;DHT22;9489;50.948;3.114;2024-01-15T04:26:40;3.70;32.30
18721;DHT22;9489;50.948;3.114;2024-01-15T04:29:05;3.70;40.80
18721;DHT22;9489;50.948;3.114;2024-01-15T04:31:31;3.80;31.50
18721;DHT22;9489;50.948;3.114;2024-01-15T04:33:56;3.70;28.90
18721;DHT22;9489;50.948;3.114;2024-01-15T04:36:22;3.70;30.00
18721;DHT22;9489;50.948;3.114;2024-01-15T04:38:48;3.80;19.20
18721;DHT22;9489;50.948;3.114;2024-01-15T04:41:14;3.70;5.80
18721;DHT22;9489;50.948;3.114;2024-01-15T04:43:41;3.70;3.90
18721;DHT22;9489;50.948;3.114;2024-01-15T04:46:06;3.70;1.00
18721;DHT22;9489;50.948;3.114;2024-01-15T04:48:33;3.80;1.00
18721;DHT22;9489;50.948;3.114;2024-01-15T04:50:59;3.80;1.00
18721;DHT22;9489;50.948;3.114;2024-01-15T04:53:25;3.80;1.00
18721;DHT22;9489;50.948;3.114;2024-01-15T04:55:51;3.80;1.00
18721;DHT22;9489;50.948;3.114;2024-01-15T04:58:16;3.70;1.00
18721;DHT22;9489;50.948;3.114;2024-01-15T05:00:42;3.70;8.00
18721;DHT22;9489;50.948;3.114;2024-01-15T05:03:08;3.60;7.90
18721;DHT22;9489;50.948;3.114;2024-01-15T05:05:33;3.70;1.00
18721;DHT22;9489;50.948;3.114;2024-01-15T05:07:59;3.60;22.50
18721;DHT22;9489;50.948;3.114;2024-01-15T05:10:25;3.70;1.00
18721;DHT22;9489;50.948;3.114;2024-01-15T05:12:50;3.70;1.00
18721;DHT22;9489;50.948;3.114;2024-01-15T05:15:16;3.60;1.00
18721;DHT22;9489;50.948;3.114;2024-01-15T05:17:42;3.60;1.00
18721;DHT22;9489;50.948;3.114;2024-01-15T05:20:08;3.60;1.00
18721;DHT22;9489;50.948;3.114;2024-01-15T05:22:33;3.60;1.00
18721;DHT22;9489;50.948;3.114;2024-01-15T05:24:59;3.70;1.00
18721;DHT22;9489;50.948;3.114;2024-01-15T05:27:25;3.70;1.00
18721;DHT22;9489;50.948;3.114;2024-01-15T05:29:50;3.70;1.00
18721;DHT22;9489;50.948;3.114;2024-01-15T05:32:16;3.70;1.00
18721;DHT22;9489;50.948;3.114;2024-01-15T05:34:41;3.70;1.00
18721;DHT22;9489;50.948;3.114;2024-01-15T05:37:07;3.70;1.00
18721;DHT22;9489;50.948;3.114;2024-01-15T05:39:33;3.70;1.00
18721;DHT22;9489;50.948;3.114;2024-01-15T05:41:58;3.70;1.00
18721;DHT22;9489;50.948;3.114;2024-01-15T05:44:25;3.70;1.00
18721;DHT22;9489;50.948;3.114;2024-01-15T05:46:50;3.70;69.30
18721;DHT22;9489;50.948;3.114;2024-01-15T05:49:16;3.70;45.70
18721;DHT22;9489;50.948;3.114;2024-01-15T05:51:42;3.70;27.90
18721;DHT22;9489;50.948;3.114;2024-01-15T05:54:07;3.70;99.90
18721;DHT22;9489;50.948;3.114;2024-01-15T05:56:33;3.70;99.90
18721;DHT22;9489;50.948;3.114;2024-01-15T05:58:59;3.70;93.30
18721;DHT22;9489;50.948;3.114;2024-01-15T06:01:24;3.60;67.70
18721;DHT22;9489;50.948;3.114;2024-01-15T06:03:50;3.70;1.00
18721;DHT22;9489;50.948;3.114;2024-01-15T06:06:15;3.60;1.00
18721;DHT22;9489;50.948;3.114;2024-01-15T06:08:41;3.60;99.90
18721;DHT22;9489;50.948;3.114;2024-01-15T06:11:07;3.70;50.70
18721;DHT22;9489;50.948;3.114;2024-01-15T06:13:33;3.60;1.00
18721;DHT22;9489;50.948;3.114;2024-01-15T06:15:59;3.60;1.00
18721;DHT22;9489;50.948;3.114;2024-01-15T06:18:24;3.60;99.90
18721;DHT22;9489;50.948;3.114;2024-01-15T06:20:50;3.60;1.00
18721;DHT22;9489;50.948;3.114;2024-01-15T06:23:15;3.60;1.00
18721;DHT22;9489;50.948;3.114;2024-01-15T06:25:41;3.60;99.90
18721;DHT22;9489;50.948;3.114;2024-01-15T06:28:07;3.50;99.90
18721;DHT22;9489;50.948;3.114;2024-01-15T06:30:33;3.50;99.90
18721;DHT22;9489;50.948;3.114;2024-01-15T06:32:58;3.50;99.90
18721;DHT22;9489;50.948;3.114;2024-01-15T06:35:24;3.40;99.90
18721;DHT22;9489;50.948;3.114;2024-01-15T06:37:49;3.30;99.90
18721;DHT22;9489;50.948;3.114;2024-01-15T06:40:15;3.20;99.90
18721;DHT22;9489;50.948;3.114;2024-01-15T06:42:41;3.10;99.90
18721;DHT22;9489;50.948;3.114;2024-01-15T06:45:07;3.10;99.90
18721;DHT22;9489;50.948;3.114;2024-01-15T06:47:32;3.00;99.90
18721;DHT22;9489;50.948;3.114;2024-01-15T06:49:58;2.90;99.90
18721;DHT22;9489;50.948;3.114;2024-01-15T06:52:24;2.90;99.90
18721;DHT22;9489;50.948;3.114;2024-01-15T06:54:49;2.80;99.90
18721;DHT22;9489;50.948;3.114;2024-01-15T06:57:15;2.80;99.90
18721;DHT22;9489;50.948;3.114;2024-01-15T06:59:41;2.70;99.90
18721;DHT22;9489;50.948;3.114;2024-01-15T07:02:06;2.70;99.90
18721;DHT22;9489;50.948;3.114;2024-01-15T07:04:32;2.60;99.90
18721;DHT22;9489;50.948;3.114;2024-01-15T07:06:58;2.60;99.90
18721;DHT22;9489;50.948;3.114;2024-01-15T07:09:24;2.50;99.90
18721;DHT22;9489;50.948;3.114;2024-01-15T07:11:49;2.50;99.90
18721;DHT22;9489;50.948;3.114;2024-01-15T07:14:15;2.50;99.90
18721;DHT22;9489;50.948;3.114;2024-01-15T07:16:40;2.50;99.90
18721;DHT22;9489;50.948;3.114;2024-01-15T07:19:07;2.50;99.90
18721;DHT22;9489;50.948;3.114;2024-01-15T07:21:33;2.50;99.90
18721;DHT22;9489;50.948;3.114;2024-01-15T07:23:58;2.50;99.90
18721;DHT22;9489;50.948;3.114;2024-01-15T07:26:24;2.50;99.90
18721;DHT22;9489;50.948;3.114;2024-01-15T07:28:50;2.50;99.90
18721;DHT22;9489;50.948;3.114;2024-01-15T07:31:17;2.40;99.90
18721;DHT22;9489;50.948;3.114;2024-01-15T07:33:43;2.40;99.90
18721;DHT22;9489;50.948;3.114;2024-01-15T07:36:08;2.40;99.90
18721;DHT22;9489;50.948;3.114;2024-01-15T07:38:34;2.40;99.90
18721;DHT22;9489;50.948;3.114;2024-01-15T07:41:00;2.40;99.90
18721;DHT22;9489;50.948;3.114;2024-01-15T07:43:26;2.40;99.90
18721;DHT22;9489;50.948;3.114;2024-01-15T07:45:53;2.40;99.90
18721;DHT22;9489;50.948;3.114;2024-01-15T07:48:19;2.40;99.90
18721;DHT22;9489;50.948;3.114;2024-01-15T07:50:45;2.40;99.90
18721;DHT22;9489;50.948;3.114;2024-01-15T07:53:12;2.40;99.90
18721;DHT22;9489;50.948;3.114;2024-01-15T07:55:38;2.40;99.90
18721;DHT22;9489;50.948;3.114;2024-01-15T07:58:03;2.40;99.90
18721;DHT22;9489;50.948;3.114;2024-01-15T08:00:30;2.50;99.90
18721;DHT22;9489;50.948;3.114;2024-01-15T08:02:55;2.50;99.90
18721;DHT22;9489;50.948;3.114;2024-01-15T08:05:21;2.50;99.90
18721;DHT22;9489;50.948;3.114;2024-01-15T08:07:47;2.60;99.90
18721;DHT22;9489;50.948;3.114;2024-01-15T08:10:13;2.60;99.90
18721;DHT22;9489;50.948;3.114;2024-01-15T08:12:39;2.70;99.90
18721;DHT22;9489;50.948;3.114;2024-01-15T08:15:05;2.80;99.90
18721;DHT22;9489;50.948;3.114;2024-01-15T08:17:31;2.90;99.90
18721;DHT22;9489;50.948;3.114;2024-01-15T08:19:57;2.90;99.90
18721;DHT22;9489;50.948;3.114;2024-01-15T08:22:23;3.00;99.90
18721;DHT22;9489;50.948;3.114;2024-01-15T08:24:49;3.00;99.90
18721;DHT22;9489;50.948;3.114;2024-01-15T08:27:14;3.00;99.90
18721;DHT22;9489;50.948;3.114;2024-01-15T08:29:40;3.10;99.90
18721;DHT22;9489;50.948;3.114;2024-01-15T08:32:06;3.10;99.90
18721;DHT22;9489;50.948;3.114;2024-01-15T08:34:31;3.20;99.90
18721;DHT22;9489;50.948;3.114;2024-01-15T08:36:57;3.20;99.90
18721;DHT22;9489;50.948;3.114;2024-01-15T08:39:22;3.30;99.90
18721;DHT22;9489;50.948;3.114;2024-01-15T08:41:48;3.30;99.90
18721;DHT22;9489;50.948;3.114;2024-01-15T08:44:14;3.30;99.90
18721;DHT22;9489;50.948;3.114;2024-01-15T08:46:39;3.30;99.90
18721;DHT22;9489;50.948;3.114;2024-01-15T08:49:05;3.30;99.90
18721;DHT22;9489;50.948;3.114;2024-01-15T08:51:31;3.50;99.90
18721;DHT22;9489;50.948;3.114;2024-01-15T08:53:57;3.80;99.90
18721;DHT22;9489;50.948;3.114;2024-01-15T08:56:23;4.50;99.90
18721;DHT22;9489;50.948;3.114;2024-01-15T08:58:49;5.20;99.90
18721;DHT22;9489;50.948;3.114;2024-01-15T09:01:15;5.80;99.90
18721;DHT22;9489;50.948;3.114;2024-01-15T09:03:41;6.30;99.90
18721;DHT22;9489;50.948;3.114;2024-01-15T09:06:08;6.40;99.90
18721;DHT22;9489;50.948;3.114;2024-01-15T09:08:35;6.20;99.90
18721;DHT22;9489;50.948;3.114;2024-01-15T09:11:00;5.90;99.90
18721;DHT22;9489;50.948;3.114;2024-01-15T09:13:28;5.90;99.90
18721;DHT22;9489;50.948;3.114;2024-01-15T09:15:54;5.70;99.90
18721;DHT22;9489;50.948;3.114;2024-01-15T09:18:19;5.60;99.90
18721;DHT22;9489;50.948;3.114;2024-01-15T09:20:45;5.60;99.90
18721;DHT22;9489;50.948;3.114;2024-01-15T09:23:10;5.70;99.90
18721;DHT22;9489;50.948;3.114;2024-01-15T09:25:36;5.60;99.90
18721;DHT22;9489;50.948;3.114;2024-01-15T09:28:02;5.50;99.90
18721;DHT22;9489;50.948;3.114;2024-01-15T09:30:28;5.60;99.90
18721;DHT22;9489;50.948;3.114;2024-01-15T09:32:53;5.70;99.90
18721;DHT22;9489;50.948;3.114;2024-01-15T09:35:19;6.30;99.90
18721;DHT22;9489;50.948;3.114;2024-01-15T09:37:44;6.90;99.90
18721;DHT22;9489;50.948;3.114;2024-01-15T09:40:13;7.60;99.90
18721;DHT22;9489;50.948;3.114;2024-01-15T09:42:40;8.20;99.90
18721;DHT22;9489;50.948;3.114;2024-01-15T09:45:07;8.70;99.90
18721;DHT22;9489;50.948;3.114;2024-01-15T09:47:35;9.30;99.90
18721;DHT22;9489;50.948;3.114;2024-01-15T09:50:01;9.40;99.90
18721;DHT22;9489;50.948;3.114;2024-01-15T09:52:30;9.50;99.90
18721;DHT22;9489;50.948;3.114;2024-01-15T09:54:57;9.50;99.90
18721;DHT22;9489;50.948;3.114;2024-01-15T09:57:24;9.60;99.90
18721;DHT22;9489;50.948;3.114;2024-01-15T09:59:52;9.80;99.90
18721;DHT22;9489;50.948;3.114;2024-01-15T10:02:19;10.10;99.90
18721;DHT22;9489;50.948;3.114;2024-01-15T10:04:45;10.20;99.90
18721;DHT22;9489;50.948;3.114;2024-01-15T10:07:15;10.50;99.90
18721;DHT22;9489;50.948;3.114;2024-01-15T10:09:41;10.30;99.90
18721;DHT22;9489;50.948;3.114;2024-01-15T10:12:07;10.30;99.90
18721;DHT22;9489;50.948;3.114;2024-01-15T10:14:34;10.20;99.90
18721;DHT22;9489;50.948;3.114;2024-01-15T10:17:00;10.10;99.90
18721;DHT22;9489;50.948;3.114;2024-01-15T10:19:26;9.20;99.90
18721;DHT22;9489;50.948;3.114;2024-01-15T10:21:51;8.10;99.90
18721;DHT22;9489;50.948;3.114;2024-01-15T10:24:17;7.30;99.90
18721;DHT22;9489;50.948;3.114;2024-01-15T10:26:42;6.90;99.90
18721;DHT22;9489;50.948;3.114;2024-01-15T10:29:09;6.90;99.90
18721;DHT22;9489;50.948;3.114;2024-01-15T10:31:37;7.20;99.90
18721;DHT22;9489;50.948;3.114;2024-01-15T10:34:12;7.10;99.90
18721;DHT22;9489;50.948;3.114;2024-01-15T10:36:41;6.70;99.90
18721;DHT22;9489;50.948;3.114;2024-01-15T10:39:07;6.30;99.90
18721;DHT22;9489;50.948;3.114;2024-01-15T10:41:33;5.90;99.90
18721;DHT22;9489;50.948;3.114;2024-01-15T10:43:59;5.60;99.90
18721;DHT22;9489;50.948;3.114;2024-01-15T10:46:26;5.50;99.90
18721;DHT22;9489;50.948;3.114;2024-01-15T10:48:51;6.00;99.90
18721;DHT22;9489;50.948;3.114;2024-01-15T10:51:18;6.60;99.90
18721;DHT22;9489;50.948;3.114;2024-01-15T10:53:44;7.40;99.90
18721;DHT22;9489;50.948;3.114;2024-01-15T10:56:11;8.00;99.90
18721;DHT22;9489;50.948;3.114;2024-01-15T10:58:39;8.20;99.90
18721;DHT22;9489;50.948;3.114;2024-01-15T11:01:06;8.80;99.90
18721;DHT22;9489;50.948;3.114;2024-01-15T11:03:32;9.30;99.90
18721;DHT22;9489;50.948;3.114;2024-01-15T11:05:59;9.70;99.90
18721;DHT22;9489;50.948;3.114;2024-01-15T11:08:25;8.80;99.90
18721;DHT22;9489;50.948;3.114;2024-01-15T11:10:51;8.20;99.90
18721;DHT22;9489;50.948;3.114;2024-01-15T11:13:40;8.20;99.90
18721;DHT22;9489;50.948;3.114;2024-01-15T11:16:07;7.80;99.90
18721;DHT22;9489;50.948;3.114;2024-01-15T11:18:37;7.30;99.90
18721;DHT22;9489;50.948;3.114;2024-01-15T11:26:37;6.00;99.90
18721;DHT22;9489;50.948;3.114;2024-01-15T11:29:06;5.60;99.90
18721;DHT22;9489;50.948;3.114;2024-01-15T11:34:05;6.00;99.90
18721;DHT22;9489;50.948;3.114;2024-01-15T11:42:00;5.90;99.90
18721;DHT22;9489;50.948;3.114;2024-01-15T11:44:27;6.10;99.90
18721;DHT22;9489;50.948;3.114;2024-01-15T11:47:13;6.90;99.90
18721;DHT22;9489;50.948;3.114;2024-01-15T11:52:22;9.20;99.90
18721;DHT22;9489;50.948;3.114;2024-01-15T11:55:26;9.30;99.90
18721;DHT22;9489;50.948;3.114;2024-01-15T11:57:54;8.30;99.90
18721;DHT22;9489;50.948;3.114;2024-01-15T12:00:21;8.10;99.90
18721;DHT22;9489;50.948;3.114;2024-01-15T12:02:48;8.00;99.90
18721;DHT22;9489;50.948;3.114;2024-01-15T12:05:15;8.70;99.90
18721;DHT22;9489;50.948;3.114;2024-01-15T12:07:43;9.10;99.90
18721;DHT22;9489;50.948;3.114;2024-01-15T12:10:14;8.90;99.90
18721;DHT22;9489;50.948;3.114;2024-01-15T12:15:09;7.90;99.90
18721;DHT22;9489;50.948;3.114;2024-01-15T12:17:35;7.60;99.90
18721;DHT22;9489;50.948;3.114;2024-01-15T12:20:03;7.60;99.90
18721;DHT22;9489;50.948;3.114;2024-01-15T12:22:29;7.10;99.90
18721;DHT22;9489;50.948;3.114;2024-01-15T12:24:55;8.00;99.90
18721;DHT22;9489;50.948;3.114;2024-01-15T12:27:21;8.00;99.90
18721;DHT22;9489;50.948;3.114;2024-01-15T12:29:47;7.20;99.90
18721;DHT22;9489;50.948;3.114;2024-01-15T12:32:13;6.80;99.90
18721;DHT22;9489;50.948;3.114;2024-01-15T12:34:38;6.70;99.90
18721;DHT22;9489;50.948;3.114;2024-01-15T12:37:07;6.50;99.90
18721;DHT22;9489;50.948;3.114;2024-01-15T12:39:34;6.50;99.90
18721;DHT22;9489;50.948;3.114;2024-01-15T12:42:01;6.20;99.90
18721;DHT22;9489;50.948;3.114;2024-01-15T12:44:27;6.00;99.90
18721;DHT22;9489;50.948;3.114;2024-01-15T12:46:53;5.90;99.90
18721;DHT22;9489;50.948;3.114;2024-01-15T12:49:19;5.70;99.90
18721;DHT22;9489;50.948;3.114;2024-01-15T12:51:52;5.50;99.90
18721;DHT22;9489;50.948;3.114;2024-01-15T12:54:18;5.50;99.90
18721;DHT22;9489;50.948;3.114;2024-01-15T12:56:44;5.50;99.90
18721;DHT22;9489;50.948;3.114;2024-01-15T12:59:10;5.40;99.90
18721;DHT22;9489;50.948;3.114;2024-01-15T13:01:35;5.30;99.90
18721;DHT22;9489;50.948;3.114;2024-01-15T13:04:01;5.30;99.90
18721;DHT22;9489;50.948;3.114;2024-01-15T13:06:27;5.20;99.90
18721;DHT22;9489;50.948;3.114;2024-01-15T13:08:53;5.30;99.90
18721;DHT22;9489;50.948;3.114;2024-01-15T13:11:18;5.30;99.90
18721;DHT22;9489;50.948;3.114;2024-01-15T13:13:44;5.40;99.90
18721;DHT22;9489;50.948;3.114;2024-01-15T13:16:10;5.60;99.90
18721;DHT22;9489;50.948;3.114;2024-01-15T13:18:36;5.70;99.90
18721;DHT22;9489;50.948;3.114;2024-01-15T13:21:02;5.70;99.90
18721;DHT22;9489;50.948;3.114;2024-01-15T13:23:28;5.60;99.90
18721;DHT22;9489;50.948;3.114;2024-01-15T13:25:54;5.50;99.90
18721;DHT22;9489;50.948;3.114;2024-01-15T13:28:20;5.40;99.90
18721;DHT22;9489;50.948;3.114;2024-01-15T13:30:46;5.30;99.90
18721;DHT22;9489;50.948;3.114;2024-01-15T13:33:13;5.30;99.90
18721;DHT22;9489;50.948;3.114;2024-01-15T13:35:38;5.30;99.90
18721;DHT22;9489;50.948;3.114;2024-01-15T13:38:04;5.40;99.90
18721;DHT22;9489;50.948;3.114;2024-01-15T13:40:30;5.40;99.90
18721;DHT22;9489;50.948;3.114;2024-01-15T13:42:55;5.40;99.90
18721;DHT22;9489;50.948;3.114;2024-01-15T13:45:21;5.40;99.90
18721;DHT22;9489;50.948;3.114;2024-01-15T13:47:49;5.30;99.90
18721;DHT22;9489;50.948;3.114;2024-01-15T13:50:15;5.30;99.90
18721;DHT22;9489;50.948;3.114;2024-01-15T13:52:40;5.20;99.90
18721;DHT22;9489;50.948;3.114;2024-01-15T13:55:07;5.20;99.90
18721;DHT22;9489;50.948;3.114;2024-01-15T13:57:34;5.20;99.90
18721;DHT22;9489;50.948;3.114;2024-01-15T13:59:59;5.00;99.90
18721;DHT22;9489;50.948;3.114;2024-01-15T14:02:25;4.90;99.90
18721;DHT22;9489;50.948;3.114;2024-01-15T14:04:51;4.80;99.90
18721;DHT22;9489;50.948;3.114;2024-01-15T14:07:16;4.80;99.90
18721;DHT22;9489;50.948;3.114;2024-01-15T14:09:42;4.80;99.90
18721;DHT22;9489;50.948;3.114;2024-01-15T14:12:08;4.80;99.90
18721;DHT22;9489;50.948;3.114;2024-01-15T14:14:33;4.80;99.90
18721;DHT22;9489;50.948;3.114;2024-01-15T14:16:59;4.80;99.90
18721;DHT22;9489;50.948;3.114;2024-01-15T14:19:25;4.80;99.90
18721;DHT22;9489;50.948;3.114;2024-01-15T14:21:51;4.80;99.90
18721;DHT22;9489;50.948;3.114;2024-01-15T14:24:16;4.80;99.90
18721;DHT22;9489;50.948;3.114;2024-01-15T14:26:42;4.90;99.90
18721;DHT22;9489;50.948;3.114;2024-01-15T14:29:08;4.80;99.90
18721;DHT22;9489;50.948;3.114;2024-01-15T14:31:34;4.70;99.90
18721;DHT22;9489;50.948;3.114;2024-01-15T14:34:00;4.60;99.90
18721;DHT22;9489;50.948;3.114;2024-01-15T14:36:27;4.60;99.90
18721;DHT22;9489;50.948;3.114;2024-01-15T14:38:53;4.50;99.90
18721;DHT22;9489;50.948;3.114;2024-01-15T14:41:19;4.40;99.90
18721;DHT22;9489;50.948;3.114;2024-01-15T14:43:45;4.40;99.90
18721;DHT22;9489;50.948;3.114;2024-01-15T14:46:10;4.30;99.90
18721;DHT22;9489;50.948;3.114;2024-01-15T14:48:36;4.20;99.90
18721;DHT22;9489;50.948;3.114;2024-01-15T14:51:02;4.10;99.90
18721;DHT22;9489;50.948;3.114;2024-01-15T14:53:28;4.10;99.90
18721;DHT22;9489;50.948;3.114;2024-01-15T14:55:54;4.10;99.90
18721;DHT22;9489;50.948;3.114;2024-01-15T14:58:20;4.10;99.90
18721;DHT22;9489;50.948;3.114;2024-01-15T15:00:46;4.10;99.90
18721;DHT22;9489;50.948;3.114;2024-01-15T15:03:12;4.10;99.90
18721;DHT22;9489;50.948;3.114;2024-01-15T15:05:41;4.10;99.90
18721;DHT22;9489;50.948;3.114;2024-01-15T15:08:07;4.10;99.90
18721;DHT22;9489;50.948;3.114;2024-01-15T15:10:37;4.10;99.90
18721;DHT22;9489;50.948;3.114;2024-01-15T15:13:03;4.20;99.90
18721;DHT22;9489;50.948;3.114;2024-01-15T15:15:29;4.30;99.90
18721;DHT22;9489;50.948;3.114;2024-01-15T15:17:55;4.40;99.90
18721;DHT22;9489;50.948;3.114;2024-01-15T15:20:20;4.40;99.90
18721;DHT22;9489;50.948;3.114;2024-01-15T15:22:46;4.40;99.90
18721;DHT22;9489;50.948;3.114;2024-01-15T15:25:12;4.40;99.90
18721;DHT22;9489;50.948;3.114;2024-01-15T15:27:38;4.50;99.90
18721;DHT22;9489;50.948;3.114;2024-01-15T15:30:08;4.40;99.90
18721;DHT22;9489;50.948;3.114;2024-01-15T15:32:33;4.30;99.90
18721;DHT22;9489;50.948;3.114;2024-01-15T15:34:59;4.20;99.90
18721;DHT22;9489;50.948;3.114;2024-01-15T15:37:25;4.20;99.90
18721;DHT22;9489;50.948;3.114;2024-01-15T15:39:51;4.20;99.90
18721;DHT22;9489;50.948;3.114;2024-01-15T15:42:17;4.20;99.90
18721;DHT22;9489;50.948;3.114;2024-01-15T15:44:42;4.20;99.90
18721;DHT22;9489;50.948;3.114;2024-01-15T15:47:12;4.20;99.90
18721;DHT22;9489;50.948;3.114;2024-01-15T15:49:40;4.10;99.90
18721;DHT22;9489;50.948;3.114;2024-01-15T15:52:06;4.00;99.90
18721;DHT22;9489;50.948;3.114;2024-01-15T15:54:32;3.90;99.90
18721;DHT22;9489;50.948;3.114;2024-01-15T15:56:58;3.90;99.90
18721;DHT22;9489;50.948;3.114;2024-01-15T15:59:23;3.90;99.90
18721;DHT22;9489;50.948;3.114;2024-01-15T16:01:49;3.90;99.90
18721;DHT22;9489;50.948;3.114;2024-01-15T16:04:15;3.90;99.90
18721;DHT22;9489;50.948;3.114;2024-01-15T16:06:41;3.90;99.90
18721;DHT22;9489;50.948;3.114;2024-01-15T16:09:07;3.90;99.90
18721;DHT22;9489;50.948;3.114;2024-01-15T16:11:36;3.90;99.90
18721;DHT22;9489;50.948;3.114;2024-01-15T16:14:03;3.90;99.90
18721;DHT22;9489;50.948;3.114;2024-01-15T16:16:29;3.80;99.90
18721;DHT22;9489;50.948;3.114;2024-01-15T16:18:54;3.80;99.90